Detall de PIREP

Printer-friendly versionPDF version

[2011/02/23 09:43:00]
Flight IATA:CT3113
Pilot Number:011
Company ICAO:CAT
Aircraft Type:F50/A
PAX:50
Aircraft Registration:DREAMWINGS
Departing Airport: LFMP
Destination Airport: LEBL
Alternate Airport:LEPA
Online: VATSIM
Route:KELAM J27 PPG B384 ALBER
Flight Level:F150
No Slew and time accel
No pause
Crash detect
Detect pilot in Cockpit between each 30 and 45 minutes
09:43 Zero fuel Weight: 42043 Lbs, Fuel Weight: 2087 Lbs
09:43 VATSIM:LFMP 230900Z 31021KT 9999 FEW020 11/04 Q1020 NOSIG
09:43 VATSIM:LEBL 230930Z 30003KT 270V340 9999 FEW025 13/09 Q1020 NOSIG
09:47 Parking Brakes off
09:55 Take-off
09:55 Take off Weight: 44075 Lbs
09:55 Wind: 312º @ 021 Knots Heading: 326º
09:55 POS N42º 44´ 35´´ E002º 52´ 15´´
09:55 Flaps:3 at 136 Knots
09:55 Gear Up: 136 Knots
09:57 Flaps:2 at 157 Knots
09:57 Flaps:1 at 161 Knots
09:58 Flaps:0 at 165 Knots
10:04 TOC
10:04 Fuel Weight: 1740 Lb
10:10 Wind:309º@065 Knots Heading: 196º Ground Speed: 295 Knots Altitude 15200 ft
10:18 TOD
10:18 Fuel Weight: 1335 Lb
10:25 Wind:276º@001 Knots Heading: 193º Ground Speed: 249 Knots Altitude 9179 ft
10:31 Flaps:1 at 182 Knots
10:32 Flaps:2 at 167 Knots
10:32 Flaps:3 at 160 Knots
10:33 Flaps:4 at 155 Knots
10:33 Gear Down: 153 Knots
10:34 Flaps:5 at 115 Knots
10:34 Flaps:6 at 102 Knots
10:37 TouchDown:Rate -90 ft/min Speed: 91 Knots
10:38 VATSIM:LEBL 231000Z 23008KT 200V280 9999 FEW016 14/10 Q1021 NOSIG
10:38 Land
10:38 Wind:224º@008 Knots
10:38 Heading: 246º
10:38 Flight Duration: 00:43
10:38 Landing Weight: 43129 Lbs
10:38 POS N41º 18´ 03´´ E002º 05´ 24´´
10:41 Parking brakes on
10:41 Block to Block Duration: 00:54
10:41 Final Fuel: 1058 Lbls
10:41 Spent Fuel: 1029 Lbls
10:41 Flight Length: 111 NM
10:41 TOD Land Length: 18 NM

Exportar CSV

Powered by Drupal - Modified by Danger4k